createdAt,value
2018-07-11T00:00:47.374Z,94683.09
2018-07-11T00:03:18.935Z,94679.59
2018-07-11T00:05:49.066Z,94677.62
2018-07-11T00:08:19.298Z,94675.50
2018-07-11T00:10:49.283Z,94682.78
2018-07-11T00:13:19.199Z,94679.55
2018-07-11T00:15:49.143Z,94675.77
2018-07-11T00:18:18.744Z,94677.11
2018-07-11T00:20:48.578Z,94681.49
2018-07-11T00:23:18.325Z,94675.41
2018-07-11T00:25:48.291Z,94675.08
2018-07-11T00:28:18.362Z,94674.52
2018-07-11T00:30:48.519Z,94672.48
2018-07-11T00:33:18.654Z,94664.36
2018-07-11T00:35:48.976Z,94664.65
2018-07-11T00:38:18.995Z,94663.63
2018-07-11T00:40:49.272Z,94659.50
2018-07-11T00:43:19.127Z,94660.58
2018-07-11T00:45:50.208Z,94661.11
2018-07-11T00:48:20.075Z,94663.42
2018-07-11T00:50:50.068Z,94665.50
2018-07-11T00:53:22.015Z,94664.80
2018-07-11T00:55:51.822Z,94662.34
2018-07-11T00:58:26.402Z,94661.61
2018-07-11T01:01:08.078Z,94658.66
2018-07-11T01:03:47.198Z,94657.08
2018-07-11T01:06:17.108Z,94653.71
2018-07-11T01:08:47.205Z,94652.41
2018-07-11T01:11:18.525Z,94650.03
2018-07-11T01:13:49.307Z,94657.97
2018-07-11T01:16:19.652Z,94664.58
2018-07-11T01:19:06.033Z,94657.31
2018-07-11T01:21:36.747Z,94663.32
2018-07-11T01:24:06.570Z,94658.34
2018-07-11T01:26:37.521Z,94661.48
2018-07-11T01:29:07.590Z,94661.24
2018-07-11T01:31:37.452Z,94658.23
2018-07-11T01:34:07.218Z,94661.16
2018-07-11T01:36:37.185Z,94656.50
2018-07-11T01:39:07.255Z,94662.23
2018-07-11T01:41:37.322Z,94663.56
2018-07-11T01:44:07.079Z,94663.00
2018-07-11T01:46:42.996Z,94659.15
2018-07-11T01:49:12.720Z,94664.95
2018-07-11T01:51:53.678Z,94662.62
2018-07-11T01:54:23.949Z,94658.37
2018-07-11T01:56:54.015Z,94654.19
2018-07-11T01:59:25.664Z,94659.99
2018-07-11T02:01:56.183Z,94655.01
2018-07-11T02:04:26.328Z,94654.48
2018-07-11T02:06:56.580Z,94662.64
2018-07-11T02:09:27.032Z,94658.73
2018-07-11T02:11:57.019Z,94658.98
2018-07-11T02:14:26.830Z,94662.66
2018-07-11T02:16:56.751Z,94658.20
2018-07-11T02:19:26.478Z,94663.19
2018-07-11T02:21:57.203Z,94661.86
2018-07-11T02:24:27.251Z,94661.35
2018-07-11T02:26:57.254Z,94660.27
2018-07-11T02:29:27.202Z,94666.59
2018-07-11T02:31:57.288Z,94665.80
2018-07-11T02:34:32.386Z,94673.17
2018-07-11T02:37:02.878Z,94662.66
2018-07-11T02:39:33.318Z,94661.87
2018-07-11T02:42:03.303Z,94670.53
2018-07-11T02:44:33.045Z,94668.94
2018-07-11T02:47:07.795Z,94675.27
2018-07-11T02:49:37.609Z,94673.15
2018-07-11T02:52:07.544Z,94669.72
2018-07-11T02:54:37.542Z,94662.36
2018-07-11T02:57:07.413Z,94667.09
2018-07-11T02:59:37.295Z,94667.09
2018-07-11T03:02:07.447Z,94667.91
2018-07-11T03:04:37.872Z,94672.90
2018-07-11T03:07:08.733Z,94672.63
2018-07-11T03:09:38.555Z,94678.67
2018-07-11T03:12:08.591Z,94675.80
2018-07-11T03:14:41.500Z,94682.36
2018-07-11T03:17:11.242Z,94679.22
2018-07-11T03:19:40.924Z,94684.72
2018-07-11T03:22:10.996Z,94683.94
2018-07-11T03:24:41.143Z,94680.78
2018-07-11T03:27:11.109Z,94691.03
2018-07-11T03:29:41.263Z,94691.55
2018-07-11T03:32:11.356Z,94688.12
2018-07-11T03:34:41.557Z,94684.97
2018-07-11T03:37:11.405Z,94685.77
2018-07-11T03:39:42.093Z,94684.72
2018-07-11T03:42:11.724Z,94691.02
2018-07-11T03:44:41.928Z,94682.59
2018-07-11T03:47:11.688Z,94694.16
2018-07-11T03:49:41.559Z,94699.41
2018-07-11T03:52:11.454Z,94702.30
2018-07-11T03:54:41.459Z,94699.15
2018-07-11T03:57:11.214Z,94701.24
2018-07-11T03:59:41.028Z,94705.70
2018-07-11T04:02:10.925Z,94708.33
2018-07-11T04:04:40.808Z,94709.92
2018-07-11T04:07:10.564Z,94705.13
2018-07-11T04:09:40.498Z,94709.34
2018-07-11T04:12:10.188Z,94704.09
2018-07-11T04:14:39.833Z,94715.91
2018-07-11T04:17:09.512Z,94720.59
2018-07-11T04:19:39.486Z,94722.66
2018-07-11T04:22:09.319Z,94731.26
2018-07-11T04:24:39.393Z,94723.55
2018-07-11T04:27:09.037Z,94724.27
2018-07-11T04:29:39.316Z,94730.59
2018-07-11T04:32:09.339Z,94730.23
2018-07-11T04:34:39.445Z,94730.50
2018-07-11T04:37:09.359Z,94729.67
2018-07-11T04:39:39.346Z,94734.34
2018-07-11T04:42:09.239Z,94727.41
2018-07-11T04:44:39.823Z,94729.95
2018-07-11T04:47:09.671Z,94727.50
2018-07-11T04:49:39.538Z,94730.05
2018-07-11T04:52:09.770Z,94724.45
2018-07-11T04:54:39.512Z,94724.31
2018-07-11T04:57:09.217Z,94725.79
2018-07-11T04:59:38.895Z,94721.53
2018-07-11T05:02:08.618Z,94724.02
2018-07-11T05:04:38.373Z,94726.30
2018-07-11T05:07:08.292Z,94729.81
2018-07-11T05:09:38.154Z,94724.42
2018-07-11T05:12:08.253Z,94721.45
2018-07-11T05:14:37.810Z,94724.13
2018-07-11T05:17:07.415Z,94730.88
2018-07-11T05:19:37.305Z,94729.80
2018-07-11T05:22:07.333Z,94726.23
2018-07-11T05:24:37.456Z,94732.84
2018-07-11T05:27:07.212Z,94730.31
2018-07-11T05:29:36.940Z,94735.47
2018-07-11T05:32:07.199Z,94737.45
2018-07-11T05:34:36.997Z,94740.22
2018-07-11T05:37:06.873Z,94732.39
2018-07-11T05:39:36.869Z,94734.34
2018-07-11T05:42:06.931Z,94734.87
2018-07-11T05:44:36.659Z,94732.91
2018-07-11T05:47:07.249Z,94741.50
2018-07-11T05:49:37.044Z,94740.66
2018-07-11T05:52:06.889Z,94741.55
2018-07-11T05:54:36.897Z,94740.15
2018-07-11T05:57:06.892Z,94735.04
2018-07-11T05:59:36.911Z,94737.25
2018-07-11T06:02:06.713Z,94737.38
2018-07-11T06:04:36.686Z,94736.30
2018-07-11T06:07:06.831Z,94727.95
2018-07-11T06:09:36.801Z,94732.09
2018-07-11T06:12:06.561Z,94727.36
2018-07-11T06:14:36.446Z,94725.52
2018-07-11T06:17:06.165Z,94730.06
2018-07-11T06:19:35.847Z,94726.49
2018-07-11T06:22:05.521Z,94717.18
2018-07-11T06:24:35.391Z,94719.76
2018-07-11T06:27:05.526Z,94710.16
2018-07-11T06:29:35.395Z,94709.94
2018-07-11T06:32:05.254Z,94708.42
2018-07-11T06:34:34.909Z,94709.70
2018-07-11T06:37:04.916Z,94713.67
2018-07-11T06:39:34.788Z,94712.48
2018-07-11T06:42:04.767Z,94706.28
2018-07-11T06:44:35.035Z,94712.05
2018-07-11T06:47:09.826Z,94714.53
2018-07-11T06:49:39.517Z,94716.05
2018-07-11T06:52:09.226Z,94713.10
2018-07-11T06:54:38.951Z,94711.63
2018-07-11T06:57:08.816Z,94713.84
2018-07-11T06:59:38.693Z,94711.70
2018-07-11T07:02:08.655Z,94710.70
2018-07-11T07:04:38.412Z,94715.70
2018-07-11T07:07:08.200Z,94714.89
2018-07-11T07:09:38.109Z,94709.97
2018-07-11T07:12:08.231Z,94709.53
2018-07-11T07:14:38.076Z,94708.91
2018-07-11T07:17:07.789Z,94709.66
2018-07-11T07:19:37.375Z,94712.07
2018-07-11T07:22:07.200Z,94706.16
2018-07-11T07:24:37.219Z,94705.57
2018-07-11T07:27:06.867Z,94703.59
2018-07-11T07:29:36.762Z,94702.38
2018-07-11T07:32:06.859Z,94707.95
2018-07-11T07:34:36.916Z,94705.37
2018-07-11T07:37:06.555Z,94703.98
2018-07-11T07:39:36.834Z,94697.78
2018-07-11T07:42:06.855Z,94689.90
2018-07-11T07:44:36.995Z,94694.61
2018-07-11T07:47:07.984Z,94691.23
2018-07-11T07:49:38.117Z,94690.38
2018-07-11T07:52:07.827Z,94690.34
2018-07-11T07:54:37.679Z,94694.09
2018-07-11T07:57:07.885Z,94688.34
2018-07-11T07:59:38.029Z,94682.74
2018-07-11T08:02:08.020Z,94691.34
2018-07-11T08:04:38.028Z,94692.58
2018-07-11T08:07:07.961Z,94693.55
2018-07-11T08:09:37.871Z,94684.62
2018-07-11T08:12:07.593Z,94687.54
2018-07-11T08:14:37.383Z,94682.83
2018-07-11T08:17:07.548Z,94678.94
2018-07-11T08:19:37.171Z,94677.38
2018-07-11T08:22:17.704Z,94682.22
2018-07-11T08:24:58.140Z,94678.52
2018-07-11T08:27:38.859Z,94680.10
2018-07-11T08:32:54.667Z,94673.99
2018-07-11T08:37:39.954Z,94670.48
2018-07-11T08:41:24.219Z,94669.66
2018-07-11T08:44:35.824Z,94665.50
2018-07-11T08:47:15.351Z,94673.81
2018-07-11T08:49:56.520Z,94663.93
2018-07-11T08:52:35.610Z,94661.52
2018-07-11T08:57:22.242Z,94659.56
2018-07-11T09:01:00.647Z,94661.30
2018-07-11T09:03:55.920Z,94664.39
2018-07-11T09:07:40.306Z,94663.43
2018-07-11T09:10:48.436Z,94662.76
2018-07-11T09:14:34.137Z,94650.49
2018-07-11T09:17:14.333Z,94655.05
2018-07-11T09:19:57.168Z,94652.61
2018-07-11T09:23:44.327Z,94647.81
2018-07-11T09:26:14.259Z,94647.47
2018-07-11T09:31:12.283Z,94651.22
2018-07-11T09:33:42.007Z,94646.66
2018-07-11T09:36:11.791Z,94642.97
2018-07-11T09:38:41.976Z,94641.30
2018-07-11T09:41:11.878Z,94649.54
2018-07-11T09:43:42.385Z,94647.42
2018-07-11T09:46:12.359Z,94644.12
2018-07-11T09:48:42.236Z,94651.77
2018-07-11T09:51:12.023Z,94661.55
2018-07-11T09:53:41.766Z,94649.35
2018-07-11T09:56:11.415Z,94645.86
2018-07-11T09:58:41.600Z,94648.92
2018-07-11T10:01:16.544Z,94643.84
2018-07-11T10:03:46.798Z,94649.39
2018-07-11T10:06:16.811Z,94649.23
2018-07-11T10:08:47.030Z,94645.50
2018-07-11T10:11:16.835Z,94650.44
2018-07-11T10:13:46.683Z,94642.02
2018-07-11T10:16:16.790Z,94644.90
2018-07-11T10:18:59.430Z,94643.41
2018-07-11T10:21:31.176Z,94647.23
2018-07-11T10:24:01.014Z,94645.05
2018-07-11T10:26:30.721Z,94645.59
2018-07-11T10:29:00.459Z,94642.58
2018-07-11T10:31:30.776Z,94640.72
2018-07-11T10:34:00.412Z,94641.10
2018-07-11T10:36:30.128Z,94635.95
2018-07-11T10:38:59.941Z,94631.80
2018-07-11T10:41:29.899Z,94641.86
2018-07-11T10:43:59.738Z,94629.28
2018-07-11T10:46:29.492Z,94633.81
2018-07-11T10:48:59.432Z,94622.55
2018-07-11T10:51:29.135Z,94622.50
2018-07-11T10:53:59.199Z,94624.42
2018-07-11T10:56:28.771Z,94620.14
2018-07-11T10:58:58.323Z,94623.06
2018-07-11T11:01:27.890Z,94623.20
2018-07-11T11:03:57.650Z,94629.39
2018-07-11T11:06:27.455Z,94626.03
2018-07-11T11:08:57.001Z,94623.75
2018-07-11T11:11:26.839Z,94615.40
2018-07-11T11:13:56.483Z,94606.72
2018-07-11T11:16:26.376Z,94613.98
2018-07-11T11:18:56.274Z,94607.65
2018-07-11T11:21:26.182Z,94607.77
2018-07-11T11:23:55.983Z,94602.27
2018-07-11T11:26:25.720Z,94610.95
2018-07-11T11:28:55.363Z,94603.93
2018-07-11T11:31:25.002Z,94601.59
2018-07-11T11:33:54.636Z,94599.45
2018-07-11T11:36:24.323Z,94611.36
2018-07-11T11:38:54.221Z,94600.73
2018-07-11T11:41:24.158Z,94600.27
2018-07-11T11:43:53.878Z,94598.77
2018-07-11T11:46:23.878Z,94592.50
2018-07-11T11:48:53.620Z,94589.73
2018-07-11T11:51:23.266Z,94594.25
2018-07-11T11:53:52.971Z,94584.58
2018-07-11T11:56:22.720Z,94588.34
2018-07-11T11:58:52.593Z,94586.38
2018-07-11T12:01:22.298Z,94576.18
2018-07-11T12:03:52.314Z,94577.14
2018-07-11T12:06:22.231Z,94572.59
2018-07-11T12:08:52.418Z,94577.92
2018-07-11T12:11:22.327Z,94575.48
2018-07-11T12:13:52.299Z,94567.53
2018-07-11T12:16:22.134Z,94562.22
2018-07-11T12:18:51.790Z,94561.41
2018-07-11T12:21:21.409Z,94558.48
2018-07-11T12:23:51.130Z,94554.58
2018-07-11T12:26:21.092Z,94551.32
2018-07-11T12:28:50.860Z,94546.62
2018-07-11T12:31:20.518Z,94556.39
2018-07-11T12:33:50.171Z,94550.80
2018-07-11T12:36:19.926Z,94550.73
2018-07-11T12:38:53.709Z,94546.78
2018-07-11T12:41:23.492Z,94545.99
2018-07-11T12:43:53.643Z,94549.64
2018-07-11T12:46:23.426Z,94546.52
2018-07-11T12:48:58.615Z,94546.61
2018-07-11T12:51:28.579Z,94540.31
2018-07-11T12:53:58.367Z,94537.21
2018-07-11T12:56:28.683Z,94536.52
2018-07-11T12:58:58.785Z,94543.42
2018-07-11T13:01:29.197Z,94544.52
2018-07-11T13:03:59.590Z,94540.67
2018-07-11T13:06:30.107Z,94542.14
2018-07-11T13:08:59.971Z,94541.29
2018-07-11T13:11:29.615Z,94548.48
2018-07-11T13:13:59.395Z,94549.77
2018-07-11T13:16:29.101Z,94540.48
2018-07-11T13:18:59.025Z,94543.50
2018-07-11T13:21:28.898Z,94538.03
2018-07-11T13:23:58.587Z,94536.96
2018-07-11T13:26:28.647Z,94526.95
2018-07-11T13:28:58.538Z,94530.16
2018-07-11T13:31:28.305Z,94536.25
2018-07-11T13:33:57.915Z,94519.42
2018-07-11T13:36:27.690Z,94529.88
2018-07-11T13:38:57.436Z,94534.47
2018-07-11T13:41:27.584Z,94533.12
2018-07-11T13:43:57.328Z,94533.59
2018-07-11T13:46:27.133Z,94534.85
2018-07-11T13:48:56.850Z,94533.90
2018-07-11T13:51:26.640Z,94532.34
2018-07-11T13:53:56.335Z,94531.34
2018-07-11T13:56:26.647Z,94532.73
2018-07-11T13:58:56.815Z,94531.22
2018-07-11T14:01:26.450Z,94540.09
2018-07-11T14:03:56.096Z,94536.50
2018-07-11T14:06:25.851Z,94532.71
2018-07-11T14:08:56.067Z,94535.07
2018-07-11T14:11:26.431Z,94539.86
2018-07-11T14:13:56.645Z,94534.58
2018-07-11T14:16:26.519Z,94530.09
2018-07-11T14:18:56.214Z,94529.11
2018-07-11T14:21:26.103Z,94532.23
2018-07-11T14:23:56.151Z,94533.12
2018-07-11T14:26:26.026Z,94527.73
2018-07-11T14:28:55.871Z,94535.20
2018-07-11T14:31:36.438Z,94534.05
2018-07-11T14:34:08.174Z,94529.45
2018-07-11T14:36:38.200Z,94525.77
2018-07-11T14:39:08.530Z,94522.41
2018-07-11T14:41:38.219Z,94517.93
2018-07-11T14:44:08.066Z,94519.96
2018-07-11T14:46:37.674Z,94521.89
2018-07-11T14:49:07.518Z,94517.23
2018-07-11T14:51:37.162Z,94520.01
2018-07-11T14:54:07.755Z,94513.25
2018-07-11T14:56:38.668Z,94513.83
2018-07-11T14:59:10.328Z,94513.86
2018-07-11T15:01:40.138Z,94511.80
2018-07-11T15:04:09.944Z,94514.87
2018-07-11T15:06:39.758Z,94510.03
2018-07-11T15:09:09.734Z,94515.06
2018-07-11T15:11:39.480Z,94510.52
2018-07-11T15:14:15.858Z,94516.03
2018-07-11T15:16:45.590Z,94519.93
2018-07-11T15:19:15.426Z,94510.88
2018-07-11T15:21:45.307Z,94515.11
2018-07-11T15:24:15.393Z,94518.81
2018-07-11T15:26:45.317Z,94515.63
2018-07-11T15:29:15.185Z,94527.03
2018-07-11T15:31:44.910Z,94534.80
2018-07-11T15:34:14.645Z,94524.56
2018-07-11T15:36:44.616Z,94521.66
2018-07-11T15:39:14.531Z,94531.11
2018-07-11T15:41:44.451Z,94529.52
2018-07-11T15:44:14.270Z,94526.31
2018-07-11T15:46:43.983Z,94536.75
2018-07-11T15:49:13.655Z,94522.19
2018-07-11T15:51:43.674Z,94526.06
2018-07-11T15:54:13.847Z,94528.79
2018-07-11T15:56:44.838Z,94525.83
2018-07-11T15:59:18.478Z,94524.75
2018-07-11T16:01:53.195Z,94527.20
2018-07-11T16:04:29.082Z,94526.22
2018-07-11T16:07:04.107Z,94525.97
2018-07-11T16:09:40.686Z,94529.21
2018-07-11T16:12:10.770Z,94520.67
2018-07-11T16:14:40.754Z,94520.48
2018-07-11T16:17:10.462Z,94519.48
2018-07-11T16:19:40.493Z,94525.97
2018-07-11T16:22:10.415Z,94528.87
2018-07-11T16:24:40.536Z,94528.00
2018-07-11T16:27:10.363Z,94528.95
2018-07-11T16:29:40.016Z,94528.86
2018-07-11T16:32:10.434Z,94523.45
2018-07-11T16:34:40.059Z,94522.06
2018-07-11T16:37:09.972Z,94525.01
2018-07-11T16:39:40.165Z,94528.11
2018-07-11T16:42:09.897Z,94523.91
2018-07-11T16:44:39.627Z,94522.78
2018-07-11T16:47:09.364Z,94523.52
2018-07-11T16:49:41.786Z,94529.30
2018-07-11T16:52:12.170Z,94531.09
2018-07-11T16:54:43.664Z,94533.16
2018-07-11T16:57:14.758Z,94541.59
2018-07-11T16:59:50.850Z,94543.45
2018-07-11T17:02:23.751Z,94542.52
2018-07-11T17:04:55.302Z,94546.44
2018-07-11T17:07:26.390Z,94551.95
2018-07-11T17:09:59.199Z,94554.54
2018-07-11T17:12:29.067Z,94550.91
2018-07-11T17:14:59.985Z,94541.64
2018-07-11T17:17:34.817Z,94554.30
2018-07-11T17:20:10.198Z,94559.06
2018-07-11T17:22:54.364Z,94554.97
2018-07-11T17:25:25.219Z,94556.80
2018-07-11T17:28:00.983Z,94561.07
2018-07-11T17:30:37.013Z,94561.47
2018-07-11T17:33:08.172Z,94570.12
2018-07-11T17:35:44.503Z,94573.05
2018-07-11T17:38:14.389Z,94575.66
2018-07-11T17:40:45.394Z,94581.23
2018-07-11T17:43:17.562Z,94580.04
2018-07-11T17:45:49.066Z,94586.94
2018-07-11T17:48:26.959Z,94581.83
2018-07-11T17:51:02.309Z,94579.32
2018-07-11T17:53:39.377Z,94584.74
2018-07-11T17:56:12.661Z,94592.64
2018-07-11T17:58:53.850Z,94590.28
2018-07-11T18:01:31.705Z,94596.53
2018-07-11T18:05:26.907Z,94590.69
2018-07-11T18:08:00.654Z,94596.92
2018-07-11T18:10:51.648Z,94599.36
2018-07-11T18:13:31.331Z,94603.39
2018-07-11T18:17:10.884Z,94601.84
2018-07-11T18:20:48.886Z,94608.11
2018-07-11T18:23:26.326Z,94606.55
2018-07-11T18:28:13.051Z,94610.28
2018-07-11T18:31:51.355Z,94617.21
2018-07-11T18:34:33.215Z,94623.66
2018-07-11T18:37:20.805Z,94626.13
2018-07-11T18:40:14.353Z,94632.73
2018-07-11T18:43:00.029Z,94630.80
2018-07-11T18:45:38.428Z,94641.99
2018-07-11T18:48:19.238Z,94634.02
2018-07-11T18:53:08.961Z,94634.95
2018-07-11T18:56:18.324Z,94642.75
2018-07-11T18:59:04.477Z,94650.75
2018-07-11T19:01:45.662Z,94646.88
2018-07-11T19:04:25.766Z,94648.77
2018-07-11T19:07:05.168Z,94652.56
2018-07-11T19:09:44.522Z,94653.61
2018-07-11T19:12:21.844Z,94662.52
2018-07-11T19:15:00.886Z,94661.23
2018-07-11T19:17:44.753Z,94659.36
2018-07-11T19:20:37.795Z,94668.05
2018-07-11T19:23:21.963Z,94662.14
2018-07-11T19:25:57.559Z,94669.97
2018-07-11T19:29:33.929Z,94664.84
2018-07-11T19:34:17.342Z,94671.81
2018-07-11T19:37:02.552Z,94665.77
2018-07-11T19:40:11.582Z,94673.06
2018-07-11T19:42:50.840Z,94670.79
2018-07-11T19:45:35.630Z,94673.48
2018-07-11T19:48:14.595Z,94668.81
2018-07-11T19:53:59.354Z,94665.41
2018-07-11T19:56:35.343Z,94659.88
2018-07-11T19:59:05.083Z,94659.47
2018-07-11T20:01:34.775Z,94658.47
2018-07-11T20:04:04.746Z,94661.38
2018-07-11T20:06:34.678Z,94657.64
2018-07-11T20:09:05.303Z,94661.00
2018-07-11T20:11:35.567Z,94656.06
2018-07-11T20:14:05.500Z,94658.59
2018-07-11T20:16:35.302Z,94664.31
2018-07-11T20:19:05.346Z,94665.06
2018-07-11T20:21:35.070Z,94669.33
2018-07-11T20:24:04.847Z,94671.55
2018-07-11T20:26:34.530Z,94668.06
2018-07-11T20:29:04.011Z,94663.72
2018-07-11T20:31:33.741Z,94669.16
2018-07-11T20:34:03.635Z,94664.27
2018-07-11T20:36:33.499Z,94668.00
2018-07-11T20:39:03.598Z,94670.42
2018-07-11T20:41:33.215Z,94680.97
2018-07-11T20:44:02.943Z,94682.52
2018-07-11T20:46:33.565Z,94684.62
2018-07-11T20:49:08.962Z,94690.74
2018-07-11T20:51:38.970Z,94699.29
2018-07-11T20:54:09.005Z,94700.52
2018-07-11T20:56:38.683Z,94695.36
2018-07-11T20:59:19.338Z,94702.87
2018-07-11T21:02:00.060Z,94703.07
2018-07-11T21:04:41.248Z,94714.05
2018-07-11T21:11:32.777Z,94709.48
2018-07-11T21:16:22.363Z,94713.55
2018-07-11T21:18:59.031Z,94723.33
2018-07-11T21:21:28.838Z,94720.99
2018-07-11T21:23:58.382Z,94728.52
2018-07-11T21:26:27.937Z,94728.48
2018-07-11T21:28:57.626Z,94727.89
2018-07-11T21:31:27.552Z,94729.09
2018-07-11T21:33:57.628Z,94732.49
2018-07-11T21:36:27.615Z,94729.47
2018-07-11T21:38:57.464Z,94736.11
2018-07-11T21:41:27.590Z,94727.64
2018-07-11T21:43:57.247Z,94726.69
2018-07-11T21:46:27.171Z,94722.61
2018-07-11T21:48:56.925Z,94728.05
2018-07-11T21:51:26.617Z,94728.05
2018-07-11T21:53:56.695Z,94731.77
2018-07-11T21:56:26.318Z,94740.51
2018-07-11T21:58:56.273Z,94734.97
2018-07-11T22:01:26.087Z,94731.79
2018-07-11T22:03:55.746Z,94738.62
2018-07-11T22:06:25.671Z,94732.64
2018-07-11T22:08:55.671Z,94730.92
2018-07-11T22:11:25.421Z,94730.27
2018-07-11T22:13:55.116Z,94728.19
2018-07-11T22:16:25.039Z,94728.36
2018-07-11T22:18:54.963Z,94732.13
2018-07-11T22:21:23.367Z,94736.98
2018-07-11T22:23:51.322Z,94739.98
2018-07-11T22:26:19.222Z,94737.55
2018-07-11T22:28:47.134Z,94733.64
2018-07-11T22:31:15.296Z,94740.24
2018-07-11T22:33:43.354Z,94747.02
2018-07-11T22:36:11.392Z,94742.25
2018-07-11T22:38:39.378Z,94742.33
2018-07-11T22:41:07.435Z,94743.63
2018-07-11T22:43:35.447Z,94744.77
2018-07-11T22:46:03.461Z,94736.66
2018-07-11T22:48:31.550Z,94741.16
2018-07-11T22:50:59.604Z,94741.34
2018-07-11T22:53:27.510Z,94736.48
2018-07-11T22:55:55.547Z,94741.87
2018-07-11T22:58:23.538Z,94740.57
2018-07-11T23:00:51.542Z,94737.81
2018-07-11T23:03:19.518Z,94736.75
2018-07-11T23:05:47.515Z,94728.48
2018-07-11T23:08:15.936Z,94728.99
2018-07-11T23:10:43.981Z,94736.95
2018-07-11T23:13:11.933Z,94732.78
2018-07-11T23:15:39.969Z,94730.27
2018-07-11T23:18:08.007Z,94737.59
2018-07-11T23:20:36.128Z,94730.15
2018-07-11T23:23:04.146Z,94739.11
2018-07-11T23:25:32.126Z,94745.20
2018-07-11T23:28:00.034Z,94738.67
2018-07-11T23:30:28.034Z,94742.56
2018-07-11T23:32:56.140Z,94744.33
2018-07-11T23:35:24.443Z,94744.07
2018-07-11T23:37:52.478Z,94743.35
2018-07-11T23:40:20.598Z,94742.03
2018-07-11T23:42:48.670Z,94748.24
2018-07-11T23:45:16.703Z,94748.30
2018-07-11T23:47:44.742Z,94750.67
2018-07-11T23:50:12.804Z,94740.00
2018-07-11T23:52:40.812Z,94749.48
2018-07-11T23:55:08.836Z,94744.88
2018-07-11T23:57:36.802Z,94749.44
